Catàleg de serveis del Meteocat
Campanya meteocatpedra

Dades de l'estació automàtica Ascó

?
?
Resum diari 22:00 TU
Dades diàries de l'estació meteorològica
Temperatura mitjana 15.0 °C
Temperatura màxima 19.8 °C 13:41 TU
Temperatura mínima 11.7 °C 4:51 TU
Humitat relativa mitjana 61%
Precipitació acumulada 0.0 mm
Ratxa màxima del vent (2 m) 38.9 km/h - 166º 16:24 TU
Irradiació solar global 9.8 MJ/m2

El tram horari està expressat en Temps Universal (TU). Cal sumar una hora en horari d'hivern i dues en horari d'estiu per passar a l'hora oficial.

Ascó

Metadades estació meteorol´gica
Municipi Ascó
Comarca Ribera d'Ebre
Altitud 257 m
Data alta 15.06.1998
Estat actual Operativa
Dades de període
Període
TU
TM
°C
TX
°C
TN
°C
HRM
%
PPT
mm
VVM (2 m)
km/h
DVM (2 m)
graus
VVX (2 m)
km/h
RS
W/m2
00:00 - 00:30 13.2 13.2 13.2 81 0.0 5.8 162 13.7 0
00:30 - 01:00 13.2 13.2 13.1 81 0.0 6.5 161 16.9 0
01:00 - 01:30 13.0 13.1 12.8 81 0.0 7.2 163 17.3 0
01:30 - 02:00 12.6 12.8 12.5 82 0.0 8.6 164 18.0 0
02:00 - 02:30 12.4 12.5 12.2 83 0.0 6.8 164 19.1 0
02:30 - 03:00 12.2 12.3 11.8 82 0.0 4.0 148 13.0 0
03:00 - 03:30 11.8 11.9 11.8 83 0.0 2.9 156 9.0 0
03:30 - 04:00 12.0 12.2 11.9 80 0.0 4.0 135 17.6 0
04:00 - 04:30 12.0 12.2 11.8 80 0.0 3.2 167 10.4 0
04:30 - 05:00 11.9 12.1 11.7 80 0.0 3.6 193 11.5 0
05:00 - 05:30 12.0 12.0 11.8 80 0.0 5.4 208 12.2 2
05:30 - 06:00 12.1 12.2 12.0 78 0.0 6.1 197 19.1 17
06:00 - 06:30 12.3 12.4 12.2 77 0.0 6.8 204 15.8 55
06:30 - 07:00 12.5 12.5 12.5 75 0.0 5.0 195 13.3 45
07:00 - 07:30 12.6 12.8 12.5 73 0.0 5.0 171 13.3 73
07:30 - 08:00 12.5 12.8 12.3 73 0.0 3.6 155 7.9 36
08:00 - 08:30 13.1 13.5 12.5 67 0.0 2.9 141 9.4 136
08:30 - 09:00 13.3 13.5 13.2 70 0.0 5.0 74 9.7 203
09:00 - 09:30 14.1 15.0 13.2 64 0.0 4.7 119 13.3 263
09:30 - 10:00 15.6 16.2 15.0 49 0.0 7.9 144 22.3 360
10:00 - 10:30 16.6 16.8 16.2 46 0.0 9.0 141 24.1 363
10:30 - 11:00 16.9 17.4 16.7 44 0.0 9.0 139 22.3 301
11:00 - 11:30 17.3 17.4 17.2 43 0.0 10.4 131 25.6 266
11:30 - 12:00 17.5 17.8 17.3 41 0.0 9.7 119 28.1 275
12:00 - 12:30 17.7 17.8 17.5 39 0.0 10.4 131 27.4 295
12:30 - 13:00 17.7 17.9 17.6 42 0.0 11.2 122 37.1 286
13:00 - 13:30 18.4 19.4 17.9 43 0.0 12.2 125 30.2 451
13:30 - 14:00 19.3 19.8 18.8 40 0.0 11.5 135 33.8 446
14:00 - 14:30 18.6 18.8 18.4 42 0.0 12.2 116 29.2 324
14:30 - 15:00 18.1 18.4 17.9 46 0.0 12.2 132 33.8 257
15:00 - 15:30 18.0 18.1 17.9 46 0.0 11.9 130 29.2 238
15:30 - 16:00 18.2 18.3 18.1 46 0.0 10.8 134 29.2 235
16:00 - 16:30 18.1 18.4 17.7 47 0.0 12.6 135 38.9 203
16:30 - 17:00 17.5 17.7 17.2 49 0.0 11.9 143 38.9 125
17:00 - 17:30 17.0 17.2 16.9 51 0.0 11.5 150 34.2 100
17:30 - 18:00 16.7 16.9 16.6 52 0.0 10.8 150 26.3 57
18:00 - 18:30 16.5 16.7 16.3 54 0.0 9.4 135 32.4 20
18:30 - 19:00 16.1 16.3 15.9 57 0.0 10.8 135 34.9 2
19:00 - 19:30 15.7 15.9 15.6 57 0.0 11.5 122 34.9 0
19:30 - 20:00 15.3 15.6 15.2 58 0.0 9.0 126 34.9 0
20:00 - 20:30 15.1 15.2 15.1 58 0.0 10.4 140 27.0 0
20:30 - 21:00 15.1 15.2 15.1 58 0.0 9.7 129 33.5 0
21:00 - 21:30 15.2 15.3 15.1 59 0.0 7.9 145 21.6 0
21:30 - 22:00 15.1 15.2 15.0 59 0.0 7.9 136 29.2 0
22:00 - 22:30 15.1 15.2 15.0 58 0.0 10.1 133 25.9 0
22:30 - 23:00 (s/d) (s/d) (s/d) (s/d) (s/d) (s/d) (s/d) (s/d) (s/d)

Les dades en taronja només han passat un control de qualitat automàtic. Resta pendent la seva validació definitiva.